createdAt,value
2023-05-09T00:00:11.136Z,22.05
2023-05-09T00:02:38.795Z,21.58
2023-05-09T00:05:07.953Z,21.85
2023-05-09T00:07:34.834Z,22.75
2023-05-09T00:10:01.704Z,22.30
2023-05-09T00:12:28.820Z,21.85
2023-05-09T00:14:56.835Z,21.17
2023-05-09T00:17:24.277Z,22.08
2023-05-09T00:19:53.030Z,21.05
2023-05-09T00:22:23.513Z,19.23
2023-05-09T00:24:50.642Z,20.23
2023-05-09T00:27:17.877Z,20.23
2023-05-09T00:29:45.058Z,19.55
2023-05-09T00:32:12.073Z,20.48
2023-05-09T00:34:39.174Z,18.75
2023-05-09T00:37:07.145Z,18.73
2023-05-09T00:39:34.003Z,19.45
2023-05-09T00:42:00.968Z,19.20
2023-05-09T00:44:27.709Z,20.50
2023-05-09T00:46:54.719Z,19.73
2023-05-09T00:49:22.027Z,19.70
2023-05-09T00:51:49.220Z,18.98
2023-05-09T00:54:16.330Z,19.25
2023-05-09T00:56:43.312Z,19.67
2023-05-09T00:59:10.226Z,19.38
2023-05-09T01:01:46.275Z,18.75
2023-05-09T01:04:14.057Z,18.73
2023-05-09T01:06:59.825Z,17.88
2023-05-09T01:09:29.644Z,17.27
2023-05-09T01:12:04.627Z,17.73
2023-05-09T01:14:53.946Z,17.10
2023-05-09T01:17:36.497Z,15.90
2023-05-09T01:20:27.446Z,17.77
2023-05-09T01:23:20.690Z,16.48
2023-05-09T01:25:56.651Z,16.67
2023-05-09T01:30:51.788Z,16.30
2023-05-09T01:33:19.613Z,16.40
2023-05-09T01:35:50.027Z,15.93
2023-05-09T01:38:19.007Z,16.40
2023-05-09T01:40:48.611Z,16.58
2023-05-09T01:43:16.828Z,14.93
2023-05-09T01:45:44.214Z,16.08
2023-05-09T01:48:11.849Z,16.13
2023-05-09T01:50:40.052Z,15.82
2023-05-09T01:53:07.789Z,16.95
2023-05-09T01:55:36.225Z,15.82
2023-05-09T01:58:04.404Z,14.98
2023-05-09T02:00:32.534Z,15.43
2023-05-09T02:03:01.714Z,14.85
2023-05-09T02:05:29.657Z,16.08
2023-05-09T02:07:59.683Z,14.77
2023-05-09T02:10:30.886Z,15.60
2023-05-09T02:12:58.093Z,14.27
2023-05-09T02:15:24.932Z,15.68
2023-05-09T02:17:52.439Z,15.07
2023-05-09T02:20:19.340Z,14.88
2023-05-09T02:22:49.729Z,14.80
2023-05-09T02:25:17.642Z,14.05
2023-05-09T02:27:46.734Z,14.80
2023-05-09T02:30:17.597Z,13.93
2023-05-09T02:32:45.709Z,13.77
2023-05-09T02:35:13.451Z,14.65
2023-05-09T02:37:40.952Z,14.52
2023-05-09T02:40:09.266Z,14.82
2023-05-09T02:42:36.511Z,14.15
2023-05-09T02:45:03.373Z,13.90
2023-05-09T02:47:31.921Z,14.32
2023-05-09T02:49:59.152Z,14.90
2023-05-09T02:52:26.317Z,13.95
2023-05-09T02:54:53.080Z,13.48
2023-05-09T02:57:21.387Z,13.43
2023-05-09T02:59:48.198Z,13.77
2023-05-09T03:02:15.491Z,13.73
2023-05-09T03:04:42.256Z,12.95
2023-05-09T03:07:10.137Z,14.35
2023-05-09T03:09:37.967Z,13.90
2023-05-09T03:12:06.333Z,13.68
2023-05-09T03:14:33.122Z,14.55
2023-05-09T03:17:01.172Z,12.88
2023-05-09T03:19:33.868Z,13.27
2023-05-09T03:22:00.756Z,13.55
2023-05-09T03:24:30.124Z,14.85
2023-05-09T03:26:56.961Z,13.30
2023-05-09T03:29:27.080Z,13.43
2023-05-09T03:31:55.161Z,14.10
2023-05-09T03:34:22.306Z,14.45
2023-05-09T03:36:49.381Z,14.57
2023-05-09T03:39:16.728Z,14.25
2023-05-09T03:41:46.617Z,14.30
2023-05-09T03:44:13.821Z,14.52
2023-05-09T03:46:43.995Z,13.60
2023-05-09T03:49:10.898Z,13.00
2023-05-09T03:51:38.883Z,13.30
2023-05-09T03:54:10.961Z,13.25
2023-05-09T03:56:37.825Z,13.63
2023-05-09T03:59:04.745Z,13.18
2023-05-09T04:01:40.087Z,13.77
2023-05-09T04:04:08.686Z,13.10
2023-05-09T04:06:36.576Z,13.68
2023-05-09T04:09:05.509Z,12.68
2023-05-09T04:11:34.716Z,14.25
2023-05-09T04:14:03.310Z,14.10
2023-05-09T04:16:42.069Z,13.52
2023-05-09T04:19:10.717Z,13.82
2023-05-09T04:21:38.839Z,13.45
2023-05-09T04:24:06.528Z,13.63
2023-05-09T04:26:39.257Z,14.55
2023-05-09T04:29:09.429Z,14.30
2023-05-09T04:31:38.020Z,14.40
2023-05-09T04:34:06.897Z,13.27
2023-05-09T04:36:36.636Z,13.63
2023-05-09T04:39:05.278Z,13.45
2023-05-09T04:41:37.400Z,13.80
2023-05-09T04:44:05.710Z,13.95
2023-05-09T04:46:36.074Z,13.18
2023-05-09T04:49:04.435Z,13.40
2023-05-09T04:51:31.692Z,13.32
2023-05-09T04:54:01.385Z,13.10
2023-05-09T04:56:36.952Z,13.40
2023-05-09T04:59:03.914Z,12.30
2023-05-09T05:01:31.288Z,12.45
2023-05-09T05:04:00.394Z,12.30
2023-05-09T05:06:27.626Z,12.45
2023-05-09T05:08:54.670Z,11.90
2023-05-09T05:11:22.251Z,12.73
2023-05-09T05:13:49.629Z,13.10
2023-05-09T05:16:17.442Z,12.93
2023-05-09T05:18:48.941Z,13.50
2023-05-09T05:21:17.709Z,11.45
2023-05-09T05:23:45.557Z,11.90
2023-05-09T05:26:15.016Z,11.55
2023-05-09T05:28:42.266Z,12.02
2023-05-09T05:31:12.491Z,12.63
2023-05-09T05:33:39.474Z,12.70
2023-05-09T05:36:09.404Z,12.00
2023-05-09T05:38:36.251Z,12.40
2023-05-09T05:41:03.637Z,12.18
2023-05-09T05:43:31.561Z,12.02
2023-05-09T05:45:58.475Z,11.90
2023-05-09T05:48:27.566Z,13.80
2023-05-09T05:50:55.056Z,10.70
2023-05-09T05:53:25.686Z,13.43
2023-05-09T05:55:52.800Z,13.05
2023-05-09T05:58:20.005Z,14.07
2023-05-09T06:00:47.586Z,12.02
2023-05-09T06:03:14.875Z,12.85
2023-05-09T06:05:48.104Z,12.68
2023-05-09T06:08:14.878Z,13.32
2023-05-09T06:10:41.923Z,12.32
2023-05-09T06:13:08.880Z,13.38
2023-05-09T06:15:38.088Z,12.57
2023-05-09T06:18:05.092Z,12.82
2023-05-09T06:20:32.219Z,13.82
2023-05-09T06:22:58.997Z,13.93
2023-05-09T06:25:26.087Z,11.90
2023-05-09T06:27:52.897Z,12.13
2023-05-09T06:30:26.103Z,13.40
2023-05-09T06:33:00.297Z,11.55
2023-05-09T06:35:27.377Z,12.50
2023-05-09T06:37:54.318Z,12.65
2023-05-09T06:40:21.539Z,12.98
2023-05-09T06:42:48.345Z,12.55
2023-05-09T06:45:16.056Z,12.57
2023-05-09T06:47:43.177Z,10.93
2023-05-09T06:50:10.076Z,12.98
2023-05-09T06:52:37.064Z,10.57
2023-05-09T06:55:04.440Z,11.02
2023-05-09T06:57:31.587Z,9.75
2023-05-09T06:59:58.510Z,10.52
2023-05-09T07:02:25.363Z,11.38
2023-05-09T07:04:52.225Z,10.32
2023-05-09T07:07:19.064Z,10.63
2023-05-09T07:09:45.796Z,10.85
2023-05-09T07:12:12.911Z,10.82
2023-05-09T07:14:41.778Z,10.85
2023-05-09T07:17:21.877Z,12.48
2023-05-09T07:19:50.216Z,15.13
2023-05-09T07:22:17.319Z,11.98
2023-05-09T07:24:44.667Z,11.65
2023-05-09T07:27:11.541Z,12.15
2023-05-09T07:29:38.390Z,12.48
2023-05-09T07:32:05.427Z,13.32
2023-05-09T07:34:32.460Z,12.68
2023-05-09T07:36:59.406Z,13.02
2023-05-09T07:39:26.474Z,12.25
2023-05-09T07:41:53.446Z,11.75
2023-05-09T07:44:25.612Z,13.45
2023-05-09T07:46:52.460Z,12.88
2023-05-09T07:49:19.260Z,12.20
2023-05-09T07:51:46.104Z,12.73
2023-05-09T07:54:13.654Z,13.23
2023-05-09T07:56:40.470Z,13.18
2023-05-09T07:59:07.283Z,12.35
2023-05-09T08:01:41.185Z,12.55
2023-05-09T08:04:09.226Z,10.82
2023-05-09T08:06:37.247Z,11.35
2023-05-09T08:09:04.924Z,12.00
2023-05-09T08:11:36.073Z,11.57
2023-05-09T08:14:03.149Z,10.65
2023-05-09T08:16:30.033Z,11.30
2023-05-09T08:18:57.245Z,11.90
2023-05-09T08:21:24.690Z,11.25
2023-05-09T08:23:52.935Z,11.45
2023-05-09T08:26:22.889Z,10.82
2023-05-09T08:28:49.766Z,11.77
2023-05-09T08:31:16.905Z,10.60
2023-05-09T08:33:45.403Z,9.77
2023-05-09T08:36:12.297Z,9.98
2023-05-09T08:38:40.783Z,10.50
2023-05-09T08:41:09.687Z,9.75
2023-05-09T08:43:37.932Z,10.40
2023-05-09T08:46:10.187Z,10.15
2023-05-09T08:48:37.709Z,9.55
2023-05-09T08:51:05.877Z,8.75
2023-05-09T08:53:33.313Z,9.57
2023-05-09T08:56:01.807Z,9.52
2023-05-09T08:58:28.959Z,9.68
2023-05-09T09:00:56.408Z,9.05
2023-05-09T09:03:23.898Z,8.63
2023-05-09T09:05:51.808Z,9.27
2023-05-09T09:08:19.243Z,8.98
2023-05-09T09:10:49.720Z,9.82
2023-05-09T09:13:17.948Z,7.90
2023-05-09T09:15:46.149Z,7.50
2023-05-09T09:18:16.506Z,8.55
2023-05-09T09:20:51.200Z,7.70
2023-05-09T09:23:19.201Z,8.13
2023-05-09T09:25:47.314Z,7.50
2023-05-09T09:28:14.825Z,7.93
2023-05-09T09:30:46.046Z,8.32
2023-05-09T09:33:18.997Z,7.85
2023-05-09T09:35:45.967Z,7.65
2023-05-09T09:38:12.920Z,8.23
2023-05-09T09:40:40.674Z,8.48
2023-05-09T09:43:08.112Z,8.55
2023-05-09T09:45:34.978Z,8.00
2023-05-09T09:48:05.971Z,7.93
2023-05-09T09:50:32.920Z,8.23
2023-05-09T09:53:01.026Z,8.10
2023-05-09T09:55:29.169Z,9.23
2023-05-09T09:57:56.248Z,9.13
2023-05-09T10:00:30.904Z,8.18
2023-05-09T10:02:59.403Z,8.43
2023-05-09T10:05:27.684Z,9.02
2023-05-09T10:08:01.622Z,8.40
2023-05-09T10:10:29.398Z,9.15
2023-05-09T10:12:57.484Z,7.88
2023-05-09T10:15:25.361Z,9.10
2023-05-09T10:17:54.955Z,9.45
2023-05-09T10:20:22.414Z,9.68
2023-05-09T10:22:50.701Z,8.38
2023-05-09T10:25:20.047Z,7.90
2023-05-09T10:27:47.841Z,8.85
2023-05-09T10:30:14.870Z,8.18
2023-05-09T10:32:55.467Z,8.50
2023-05-09T10:35:26.468Z,9.35
2023-05-09T10:37:56.830Z,8.10
2023-05-09T10:40:23.811Z,8.65
2023-05-09T10:42:50.818Z,8.52
2023-05-09T10:45:18.288Z,8.40
2023-05-09T10:47:45.675Z,8.32
2023-05-09T10:50:15.425Z,8.38
2023-05-09T10:53:01.363Z,8.70
2023-05-09T10:55:36.099Z,8.48
2023-05-09T10:58:23.513Z,8.45
2023-05-09T11:00:51.371Z,7.65
2023-05-09T11:03:21.517Z,8.82
2023-05-09T11:05:50.090Z,8.05
2023-05-09T11:08:21.132Z,8.85
2023-05-09T11:10:48.306Z,8.23
2023-05-09T11:13:19.650Z,7.47
2023-05-09T11:16:02.013Z,8.40
2023-05-09T11:18:29.779Z,8.38
2023-05-09T11:20:56.900Z,8.40
2023-05-09T11:23:27.299Z,8.45
2023-05-09T11:26:04.000Z,8.93
2023-05-09T11:28:32.265Z,8.43
2023-05-09T11:31:12.980Z,8.98
2023-05-09T11:33:40.783Z,8.23
2023-05-09T11:36:29.739Z,9.02
2023-05-09T11:39:01.494Z,8.20
2023-05-09T11:41:29.431Z,8.18
2023-05-09T11:44:00.617Z,7.82
2023-05-09T11:46:29.802Z,7.70
2023-05-09T11:48:58.035Z,7.72
2023-05-09T11:51:29.098Z,7.60
2023-05-09T11:53:56.211Z,7.40
2023-05-09T11:56:23.243Z,7.43
2023-05-09T11:58:51.444Z,7.47
2023-05-09T12:01:28.962Z,8.20
2023-05-09T12:03:56.174Z,8.15
2023-05-09T12:06:26.489Z,7.85
2023-05-09T12:08:55.620Z,8.25
2023-05-09T12:11:23.674Z,8.65
2023-05-09T12:13:52.322Z,8.45
2023-05-09T12:16:23.298Z,8.35
2023-05-09T12:18:54.979Z,7.88
2023-05-09T12:21:22.526Z,8.13
2023-05-09T12:23:53.412Z,7.85
2023-05-09T12:26:23.050Z,7.50
2023-05-09T12:28:50.731Z,7.78
2023-05-09T12:31:24.675Z,7.70
2023-05-09T12:33:53.566Z,7.45
2023-05-09T12:36:22.236Z,6.95
2023-05-09T12:38:53.715Z,7.03
2023-05-09T12:43:57.641Z,6.50
2023-05-09T12:46:27.901Z,7.35
2023-05-09T12:48:55.164Z,7.57
2023-05-09T12:51:23.043Z,7.68
2023-05-09T12:53:52.544Z,7.25
2023-05-09T12:56:21.212Z,6.55
2023-05-09T12:58:52.393Z,6.75
2023-05-09T13:04:09.974Z,7.45
2023-05-09T13:06:47.746Z,7.50
2023-05-09T13:09:23.003Z,6.95
2023-05-09T13:11:51.653Z,6.53
2023-05-09T13:14:23.695Z,6.28
2023-05-09T13:16:52.575Z,6.20
2023-05-09T13:19:19.562Z,5.55
2023-05-09T13:21:47.564Z,6.63
2023-05-09T13:24:14.749Z,5.43
2023-05-09T13:26:45.308Z,6.40
2023-05-09T13:29:12.106Z,6.32
2023-05-09T13:31:48.527Z,5.95
2023-05-09T13:34:15.736Z,5.43
2023-05-09T13:36:42.659Z,5.68
2023-05-09T13:39:09.702Z,5.32
2023-05-09T13:41:38.187Z,5.32
2023-05-09T13:44:06.579Z,6.20
2023-05-09T13:46:35.305Z,5.13
2023-05-09T13:49:05.197Z,5.20
2023-05-09T13:51:33.272Z,5.10
2023-05-09T13:54:00.188Z,5.05
2023-05-09T13:56:27.676Z,5.00
2023-05-09T13:58:54.557Z,6.15
2023-05-09T14:01:27.999Z,4.70
2023-05-09T14:03:55.097Z,5.07
2023-05-09T14:06:22.638Z,4.85
2023-05-09T14:08:54.703Z,4.65
2023-05-09T14:11:21.919Z,4.32
2023-05-09T14:13:48.989Z,4.97
2023-05-09T14:16:16.413Z,4.93
2023-05-09T14:18:43.376Z,4.60
2023-05-09T14:21:10.786Z,5.18
2023-05-09T14:23:38.465Z,5.50
2023-05-09T14:26:06.183Z,5.70
2023-05-09T14:28:34.040Z,6.57
2023-05-09T14:31:03.712Z,6.10
2023-05-09T14:33:30.604Z,6.47
2023-05-09T14:35:58.013Z,5.30
2023-05-09T14:38:24.964Z,4.25
2023-05-09T14:40:53.070Z,2.60
2023-05-09T14:43:20.378Z,2.10
2023-05-09T14:45:47.568Z,2.08
2023-05-09T14:48:16.231Z,2.85
2023-05-09T14:50:43.236Z,3.33
2023-05-09T14:53:11.282Z,3.22
2023-05-09T14:55:38.106Z,3.65
2023-05-09T14:58:05.446Z,3.80
2023-05-09T15:00:34.081Z,3.63
2023-05-09T15:03:00.947Z,4.03
2023-05-09T15:05:28.575Z,4.57
2023-05-09T15:07:55.426Z,5.35
2023-05-09T15:10:22.517Z,4.60
2023-05-09T15:12:49.487Z,5.80
2023-05-09T15:15:17.458Z,4.90
2023-05-09T15:17:44.956Z,5.13
2023-05-09T15:20:12.250Z,5.10
2023-05-09T15:22:39.352Z,4.25
2023-05-09T15:25:06.845Z,4.30
2023-05-09T15:27:33.998Z,4.65
2023-05-09T15:30:00.915Z,3.92
2023-05-09T15:32:28.823Z,4.40
2023-05-09T15:34:55.755Z,4.20
2023-05-09T15:37:23.039Z,3.88
2023-05-09T15:39:50.127Z,4.57
2023-05-09T15:42:17.702Z,4.10
2023-05-09T15:44:44.969Z,4.10
2023-05-09T15:47:12.036Z,5.43
2023-05-09T15:49:38.903Z,5.25
2023-05-09T15:52:06.713Z,6.05
2023-05-09T15:54:34.118Z,6.45
2023-05-09T15:57:01.500Z,5.38
2023-05-09T15:59:28.989Z,5.68
2023-05-09T16:01:56.685Z,6.00
2023-05-09T16:04:24.578Z,5.35
2023-05-09T16:06:52.430Z,7.03
2023-05-09T16:09:20.125Z,7.30
2023-05-09T16:11:48.499Z,7.63
2023-05-09T16:14:15.915Z,7.78
2023-05-09T16:16:43.827Z,6.88
2023-05-09T16:19:10.870Z,6.68
2023-05-09T16:21:39.322Z,7.32
2023-05-09T16:24:06.623Z,7.50
2023-05-09T16:26:34.499Z,7.15
2023-05-09T16:29:02.654Z,7.75
2023-05-09T16:31:32.171Z,7.20
2023-05-09T16:34:01.547Z,6.90
2023-05-09T16:36:30.006Z,7.47
2023-05-09T16:38:56.931Z,8.55
2023-05-09T16:41:24.076Z,7.88
2023-05-09T16:43:51.824Z,7.35
2023-05-09T16:46:19.745Z,7.43
2023-05-09T16:48:51.035Z,6.43
2023-05-09T16:51:20.766Z,7.10
2023-05-09T16:53:48.138Z,6.55
2023-05-09T16:56:15.107Z,6.72
2023-05-09T16:58:44.522Z,6.97
2023-05-09T17:01:13.610Z,5.55
2023-05-09T17:03:43.593Z,5.40
2023-05-09T17:06:11.715Z,5.43
2023-05-09T17:08:41.009Z,5.85
2023-05-09T17:11:08.349Z,5.78
2023-05-09T17:13:35.951Z,6.25
2023-05-09T17:16:02.956Z,5.93
2023-05-09T17:18:37.707Z,5.80
2023-05-09T17:21:06.083Z,5.13
2023-05-09T17:23:32.926Z,6.05
2023-05-09T17:26:03.823Z,6.15
2023-05-09T17:28:30.786Z,6.40
2023-05-09T17:30:59.182Z,6.43
2023-05-09T17:33:26.817Z,6.75
2023-05-09T17:35:54.101Z,7.25
2023-05-09T17:38:21.073Z,6.15
2023-05-09T17:40:48.301Z,6.30
2023-05-09T17:43:15.860Z,5.65
2023-05-09T17:45:43.393Z,6.45
2023-05-09T17:48:10.360Z,6.13
2023-05-09T17:50:37.574Z,5.55
2023-05-09T17:53:04.729Z,5.63
2023-05-09T17:55:31.940Z,5.40
2023-05-09T17:57:58.968Z,5.55
2023-05-09T18:00:26.080Z,6.32
2023-05-09T18:02:53.146Z,5.30
2023-05-09T18:05:20.827Z,5.05
2023-05-09T18:07:47.809Z,6.85
2023-05-09T18:10:15.247Z,6.60
2023-05-09T18:12:45.754Z,6.53
2023-05-09T18:15:12.959Z,6.30
2023-05-09T18:17:39.934Z,5.68
2023-05-09T18:20:07.754Z,5.45
2023-05-09T18:22:34.567Z,5.32
2023-05-09T18:25:02.197Z,5.70
2023-05-09T18:27:29.745Z,5.55
2023-05-09T18:29:56.768Z,5.75
2023-05-09T18:32:23.707Z,5.63
2023-05-09T18:34:51.022Z,5.50
2023-05-09T18:37:18.897Z,5.32
2023-05-09T18:39:47.979Z,5.43
2023-05-09T18:42:16.499Z,5.57
2023-05-09T18:44:43.990Z,4.68
2023-05-09T18:47:11.382Z,5.70
2023-05-09T18:49:38.792Z,5.82
2023-05-09T18:52:05.750Z,5.93
2023-05-09T18:54:32.823Z,6.35
2023-05-09T18:56:59.872Z,5.65
2023-05-09T18:59:27.185Z,5.95
2023-05-09T19:01:54.269Z,6.88
2023-05-09T19:04:22.224Z,7.00
2023-05-09T19:06:49.973Z,6.75
2023-05-09T19:09:19.707Z,7.38
2023-05-09T19:11:47.476Z,7.32
2023-05-09T19:14:14.677Z,7.75
2023-05-09T19:16:43.597Z,7.88
2023-05-09T19:19:10.643Z,7.50
2023-05-09T19:21:37.763Z,7.78
2023-05-09T19:24:06.294Z,7.80
2023-05-09T19:26:35.568Z,8.05
2023-05-09T19:29:07.790Z,8.45
2023-05-09T19:31:38.808Z,8.15
2023-05-09T19:34:07.675Z,8.82
2023-05-09T19:36:35.198Z,9.65
2023-05-09T19:39:02.467Z,9.55
2023-05-09T19:41:29.526Z,10.48
2023-05-09T19:43:57.473Z,11.50
2023-05-09T19:46:28.437Z,12.13
2023-05-09T19:48:55.608Z,12.18
2023-05-09T19:51:22.835Z,13.52
2023-05-09T19:53:49.810Z,12.00
2023-05-09T19:56:16.684Z,14.43
2023-05-09T19:58:49.520Z,14.38
2023-05-09T20:01:19.448Z,13.50
2023-05-09T20:03:50.347Z,16.02
2023-05-09T20:06:20.603Z,15.98
2023-05-09T20:08:47.925Z,15.15
2023-05-09T20:11:15.422Z,15.05
2023-05-09T20:13:43.038Z,14.15
2023-05-09T20:16:10.476Z,14.35
2023-05-09T20:18:37.363Z,13.55
2023-05-09T20:21:08.213Z,12.80
2023-05-09T20:23:35.709Z,11.52
2023-05-09T20:26:03.147Z,10.35
2023-05-09T20:28:30.030Z,10.82
2023-05-09T20:30:57.030Z,9.82
2023-05-09T20:33:23.958Z,10.30
2023-05-09T20:35:50.829Z,9.00
2023-05-09T20:38:17.914Z,8.65
2023-05-09T20:40:44.859Z,9.38
2023-05-09T20:43:11.703Z,9.23
2023-05-09T20:45:48.296Z,9.60
2023-05-09T20:48:15.524Z,9.52
2023-05-09T20:50:42.460Z,9.43
2023-05-09T20:53:09.491Z,10.02
2023-05-09T20:55:36.357Z,9.68
2023-05-09T20:58:03.392Z,10.55
2023-05-09T21:00:30.547Z,9.82
2023-05-09T21:02:59.960Z,9.90
2023-05-09T21:05:27.052Z,9.77
2023-05-09T21:07:55.922Z,10.65
2023-05-09T21:10:34.193Z,11.23
2023-05-09T21:13:01.195Z,11.52
2023-05-09T21:15:28.134Z,12.48
2023-05-09T21:17:55.489Z,12.38
2023-05-09T21:20:22.712Z,12.88
2023-05-09T21:22:49.779Z,13.70
2023-05-09T21:25:17.600Z,12.43
2023-05-09T21:27:44.734Z,13.80
2023-05-09T21:30:11.688Z,12.32
2023-05-09T21:32:38.605Z,15.10
2023-05-09T21:35:13.771Z,14.32
2023-05-09T21:37:40.949Z,15.07
2023-05-09T21:40:08.968Z,16.05
2023-05-09T21:42:40.819Z,14.82
2023-05-09T21:45:08.284Z,16.58
2023-05-09T21:47:35.658Z,14.15
2023-05-09T21:50:04.336Z,17.13
2023-05-09T21:52:31.766Z,17.25
2023-05-09T21:54:59.233Z,17.02
2023-05-09T21:57:26.293Z,16.10
2023-05-09T21:59:54.360Z,16.67
2023-05-09T22:02:21.250Z,17.75
2023-05-09T22:04:48.204Z,17.55
2023-05-09T22:07:15.188Z,18.15
2023-05-09T22:09:42.215Z,18.15
2023-05-09T22:12:09.185Z,20.35
2023-05-09T22:14:45.139Z,19.02
2023-05-09T22:17:15.716Z,19.42
2023-05-09T22:19:43.700Z,21.08
2023-05-09T22:22:11.931Z,20.65
2023-05-09T22:24:41.834Z,20.20
2023-05-09T22:27:09.762Z,19.63
2023-05-09T22:29:36.549Z,20.00
2023-05-09T22:32:03.672Z,18.85
2023-05-09T22:34:31.109Z,20.60
2023-05-09T22:36:57.914Z,19.05
2023-05-09T22:39:25.244Z,16.75
2023-05-09T22:41:52.083Z,18.05
2023-05-09T22:44:21.880Z,17.60
2023-05-09T22:46:48.893Z,19.80
2023-05-09T22:49:15.853Z,18.17
2023-05-09T22:51:43.188Z,21.15
2023-05-09T22:54:10.150Z,19.73
2023-05-09T22:56:36.984Z,20.35
2023-05-09T22:59:04.241Z,20.85
2023-05-09T23:01:33.797Z,21.42
2023-05-09T23:04:02.942Z,18.27
2023-05-09T23:06:29.844Z,20.95
2023-05-09T23:08:56.927Z,20.30
2023-05-09T23:11:25.645Z,18.88
2023-05-09T23:13:52.680Z,20.15
2023-05-09T23:16:27.278Z,18.38
2023-05-09T23:18:54.115Z,20.52
2023-05-09T23:21:24.042Z,21.35
2023-05-09T23:23:51.041Z,19.38
2023-05-09T23:26:21.774Z,18.33
2023-05-09T23:28:49.170Z,21.67
2023-05-09T23:31:20.289Z,19.90
2023-05-09T23:33:49.682Z,18.50
2023-05-09T23:36:16.674Z,19.33
2023-05-09T23:38:47.878Z,21.25
2023-05-09T23:41:14.705Z,19.52
2023-05-09T23:43:42.169Z,22.08
2023-05-09T23:46:11.764Z,24.55
2023-05-09T23:48:39.160Z,23.33
2023-05-09T23:51:10.670Z,25.13
2023-05-09T23:53:37.481Z,25.27
2023-05-09T23:56:05.316Z,23.83
2023-05-09T23:58:32.386Z,23.67
